Friendship, Texas
Current Conditions -  °F | °C
As of 8:02 PM on Saturday 22 Nov 2014 (Local Time) from KGRK Reporting Station
Haze Haze  
Wind Chill: 59°   Ceiling: 500
Heat Index: 59°   Visibility: 3mi
Dew Point: 59°   Wind: 10mph
Humidity: 100%   Direction: 30°NNE
Pressure: 29.78"   Gusts: NA
Location:  30.7258°N, 97.436°W
Report Text: KGRK 230202Z AUTO 03009KT 3SM BR OVC005 15/15 A2978 RMK AO2 LTG DSNT NE-E AND S AND NW RAE0202
Loading
Personal Weather Stations






























Interactive Weather Map New forecast layout! Learn more

10-Day Weather Forecast

Advertisements
Track Severe Weather on mobile